Aérodrome :
LOGIN :

S'inscrire | Disclaimer

   EN    FR    IT 

 










Légende :    VFR   VFR Marginal   IFR   IFR Intensif   IFR Très Intensif
Visi : 
Plafond : 
>= 8 km
>= 3000ft
5 à 8 km
1000 à 3000 ft
1500m à 5 km
500 à 1000 ft
800 à 1500m
200 à 500 ft
< 800m
< 200 ft
Symboles :   Orages  Brouillard  Fortes neiges  Fortes précipitations  Vent > 20 kt
SIGMETs :   Divers  Orages  Givrage  Turbulence  Onde Orograph.  Cendres Volcan.







- Altitude de l'aérodrome : 939 ft


LKKB - Kbely Air Base

DERNIER METAR :
  • 231700Z 19008KT 150V210 CAVOK 17/13 Q1013 NOSIG

METARs EXPIRÉS :
  • 231600Z 17006KT 150V270 CAVOK 17/13 Q1013 NOSIG
  • 231500Z VRB04KT 9999 FEW040 OVC080 16/13 Q1014 NOSIG

TAF COR TAF LKKB
Valide du 23 à 12h jusqu'au 24 à 12h UTC


231100Z 2312/2412 24010KT CAVOK
TEMPO 2312/2406 24012G24KT 8000 SHRA BKN040
PROB40
TEMPO 2314/2317 30016G26KT 4000 TSRA SCT030CB
Pas de NOTAMs connus pour ce terrain.
5 SIGMETs publiés pour la FIR Praha (LKAA) :
 
Orages en lignes de grains
LKAA SIGMET 9 VALID 231659/232053 LKPW
LKAA PRAHA FIR SQL TS OBS NW OF LINE N4943 E01227 - N5044 E01542 TOP FL350 MOV E WKN=
Orages noyés dans la masse
LKAA SIGMET 8 VALID 231639/231840 LKPW
LKAA PRAHA FIR EMBD TS OBS NE OF LINE N5025 E01646 - N4849 E01726 TOP FL350 MOV E NC=
Annulation du SIGMET 4 
LKAA SIGMET 7 VALID 231511/231725 LKPW
LKAA PRAHA FIR CNL SIGMET 4 231325/231725=
Orages fréquents
LKAA SIGMET 6 VALID 231510/231740 LKPW
LKAA PRAHA FIR FRQ TS FCST WI N5052 E01554 - N5029 E01645 - N4845 E01727 - N4829 E01232 - N5052 E01554 - N5052 E01554 TOP FL370 MOV E NC=
SIGMET 4  ANNULÉ :
Orages en lignes de grains
LKAA SIGMET 4 VALID 231325/231725 LKPW
LKAA PRAHA FIR SQL TS OBS WI N5100 E01409 - N5043 E01651 - N5029 E01516 - N4908 E01303 - N4926 E01237 - N5100 E01409 TOP FL370 MOV E NC=



MET'MAP, la Météo Aéronautique d'un coup d'oeil ! - Copyright ORBIFLY Décembre 2007 - Disclaimer

ORBIFLY MET'MAP TEAM :

Programmation & Développement : Alexandra Zaïnal
Conception & Développement : Baudouin d'Aumeries
Co-Programmation & Développement : Marc-Olivier Méhu
Soutien technique & logistique : Manuel Goepfert

Contact : metmap@orbifly.com




SOURCES & CREDITS :

   NOAA